Terminal Aerodrome Forecast
Issued by NWS

Home | Current Version | Previous Version | Text Only | Print | Product List | Glossary On
Versions: 1 2 3 4 5 6 7 8 9 10 11 12 13 14 15
840
FTUS45 KGGW 211129
TAFSDY
TAF
KSDY 211129Z 2112/2212 33007KT P6SM SCT160
     FM211500 31012KT P6SM FEW140
     FM220300 29007KT P6SM SKC=

USA.gov is the U.S. government's official web portal to all federal, state and local government web resources and services.